sensor_id;sensor_type;location;lat;lon;timestamp;pressure;altitude;pressure_sealevel;temperature;humidity
80335;BME280;69653;52.674;13.574;2023-08-08T00:00:08;100056.81;;;13.38;68.93
80335;BME280;69653;52.674;13.574;2023-08-08T00:02:34;100047.81;;;13.29;69.08
80335;BME280;69653;52.674;13.574;2023-08-08T00:05:00;100056.84;;;13.30;68.77
80335;BME280;69653;52.674;13.574;2023-08-08T00:07:25;100060.59;;;13.25;68.75
80335;BME280;69653;52.674;13.574;2023-08-08T00:09:51;100044.16;;;13.17;68.75
80335;BME280;69653;52.674;13.574;2023-08-08T00:12:16;100056.59;;;13.14;68.98
80335;BME280;69653;52.674;13.574;2023-08-08T00:14:41;100056.44;;;13.10;68.60
80335;BME280;69653;52.674;13.574;2023-08-08T00:17:06;100053.06;;;13.05;68.74
80335;BME280;69653;52.674;13.574;2023-08-08T00:19:32;100061.63;;;13.03;69.04
80335;BME280;69653;52.674;13.574;2023-08-08T00:21:57;100056.78;;;13.00;69.14
80335;BME280;69653;52.674;13.574;2023-08-08T00:24:22;100049.53;;;12.96;69.18
80335;BME280;69653;52.674;13.574;2023-08-08T00:26:49;100062.31;;;12.92;69.41
80335;BME280;69653;52.674;13.574;2023-08-08T00:29:14;100064.44;;;12.86;69.59
80335;BME280;69653;52.674;13.574;2023-08-08T00:31:39;100064.59;;;12.81;70.03
80335;BME280;69653;52.674;13.574;2023-08-08T00:34:04;100063.50;;;12.74;70.08
80335;BME280;69653;52.674;13.574;2023-08-08T00:36:30;100061.25;;;12.76;70.41
80335;BME280;69653;52.674;13.574;2023-08-08T00:38:55;100057.03;;;12.70;70.57
80335;BME280;69653;52.674;13.574;2023-08-08T00:41:20;100058.66;;;12.71;70.48
80335;BME280;69653;52.674;13.574;2023-08-08T00:43:46;100051.25;;;12.62;70.70
80335;BME280;69653;52.674;13.574;2023-08-08T00:46:12;100064.97;;;12.62;70.99
80335;BME280;69653;52.674;13.574;2023-08-08T00:48:37;100053.53;;;12.60;71.06
80335;BME280;69653;52.674;13.574;2023-08-08T00:51:03;100041.44;;;12.53;70.96
80335;BME280;69653;52.674;13.574;2023-08-08T00:53:29;100047.41;;;12.55;71.18
80335;BME280;69653;52.674;13.574;2023-08-08T00:55:56;100049.34;;;12.54;70.75
80335;BME280;69653;52.674;13.574;2023-08-08T00:58:23;100050.16;;;12.55;71.09
80335;BME280;69653;52.674;13.574;2023-08-08T01:00:49;100061.75;;;12.60;70.84
80335;BME280;69653;52.674;13.574;2023-08-08T01:03:14;100064.34;;;12.57;71.18
80335;BME280;69653;52.674;13.574;2023-08-08T01:05:50;100065.78;;;12.63;70.63
80335;BME280;69653;52.674;13.574;2023-08-08T01:08:16;100062.53;;;12.70;70.54
80335;BME280;69653;52.674;13.574;2023-08-08T01:10:46;100070.94;;;12.64;70.70
80335;BME280;69653;52.674;13.574;2023-08-08T01:13:15;100073.03;;;12.68;70.79
80335;BME280;69653;52.674;13.574;2023-08-08T01:15:42;100075.28;;;12.65;70.64
80335;BME280;69653;52.674;13.574;2023-08-08T01:18:09;100059.19;;;12.55;70.68
80335;BME280;69653;52.674;13.574;2023-08-08T01:20:36;100055.81;;;12.50;70.98
80335;BME280;69653;52.674;13.574;2023-08-08T01:23:30;100070.34;;;12.50;70.93
80335;BME280;69653;52.674;13.574;2023-08-08T01:25:58;100064.50;;;12.43;70.42
80335;BME280;69653;52.674;13.574;2023-08-08T01:28:24;100085.19;;;12.49;70.61
80335;BME280;69653;52.674;13.574;2023-08-08T01:30:50;100069.03;;;12.48;70.63
80335;BME280;69653;52.674;13.574;2023-08-08T01:33:16;100068.22;;;12.47;70.43
80335;BME280;69653;52.674;13.574;2023-08-08T01:35:45;100061.13;;;12.55;69.94
80335;BME280;69653;52.674;13.574;2023-08-08T01:38:17;100055.63;;;12.55;69.92
80335;BME280;69653;52.674;13.574;2023-08-08T01:40:45;100067.41;;;12.55;69.18
80335;BME280;69653;52.674;13.574;2023-08-08T01:43:11;100064.34;;;12.57;69.25
80335;BME280;69653;52.674;13.574;2023-08-08T01:45:37;100064.50;;;12.60;69.16
80335;BME280;69653;52.674;13.574;2023-08-08T01:48:07;100068.38;;;12.59;68.89
80335;BME280;69653;52.674;13.574;2023-08-08T01:50:33;100047.25;;;12.60;68.51
80335;BME280;69653;52.674;13.574;2023-08-08T01:52:58;100062.06;;;12.59;68.35
80335;BME280;69653;52.674;13.574;2023-08-08T01:55:23;100063.84;;;12.63;68.31
80335;BME280;69653;52.674;13.574;2023-08-08T01:57:48;100055.94;;;12.62;67.66
80335;BME280;69653;52.674;13.574;2023-08-08T02:00:14;100043.69;;;12.59;67.61
80335;BME280;69653;52.674;13.574;2023-08-08T02:02:39;100055.94;;;12.62;67.58
80335;BME280;69653;52.674;13.574;2023-08-08T02:05:05;100048.72;;;12.57;67.43
80335;BME280;69653;52.674;13.574;2023-08-08T02:07:30;100049.66;;;12.61;67.14
80335;BME280;69653;52.674;13.574;2023-08-08T02:09:55;100042.56;;;12.60;67.07
80335;BME280;69653;52.674;13.574;2023-08-08T02:12:21;100028.69;;;12.57;66.94
80335;BME280;69653;52.674;13.574;2023-08-08T02:14:46;100048.06;;;12.60;66.84
80335;BME280;69653;52.674;13.574;2023-08-08T02:17:11;100039.16;;;12.63;66.65
80335;BME280;69653;52.674;13.574;2023-08-08T02:19:37;100032.06;;;12.62;66.41
80335;BME280;69653;52.674;13.574;2023-08-08T02:22:02;100023.38;;;12.60;66.73
80335;BME280;69653;52.674;13.574;2023-08-08T02:24:27;100034.34;;;12.60;66.91
80335;BME280;69653;52.674;13.574;2023-08-08T02:26:53;100027.22;;;12.59;66.64
80335;BME280;69653;52.674;13.574;2023-08-08T02:29:18;100028.50;;;12.62;66.68
80335;BME280;69653;52.674;13.574;2023-08-08T02:31:43;100026.78;;;12.57;66.92
80335;BME280;69653;52.674;13.574;2023-08-08T02:34:09;100021.13;;;12.54;67.14
80335;BME280;69653;52.674;13.574;2023-08-08T02:36:34;100030.31;;;12.58;66.77
80335;BME280;69653;52.674;13.574;2023-08-08T02:38:59;100031.09;;;12.58;67.00
80335;BME280;69653;52.674;13.574;2023-08-08T02:41:24;100037.25;;;12.55;67.20
80335;BME280;69653;52.674;13.574;2023-08-08T02:43:50;100048.72;;;12.57;67.29
80335;BME280;69653;52.674;13.574;2023-08-08T02:46:15;100037.25;;;12.55;67.46
80335;BME280;69653;52.674;13.574;2023-08-08T02:48:40;100040.63;;;12.52;67.51
80335;BME280;69653;52.674;13.574;2023-08-08T02:51:06;100034.84;;;12.45;67.91
80335;BME280;69653;52.674;13.574;2023-08-08T02:53:31;100026.94;;;12.44;68.30
80335;BME280;69653;52.674;13.574;2023-08-08T02:55:56;100020.84;;;12.38;68.81
80335;BME280;69653;52.674;13.574;2023-08-08T02:58:21;100030.50;;;12.36;68.61
80335;BME280;69653;52.674;13.574;2023-08-08T03:00:47;100030.34;;;12.32;68.91
80335;BME280;69653;52.674;13.574;2023-08-08T03:03:12;100023.13;;;12.28;69.28
80335;BME280;69653;52.674;13.574;2023-08-08T03:05:37;100022.97;;;12.24;69.76
80335;BME280;69653;52.674;13.574;2023-08-08T03:08:03;100028.09;;;12.17;70.05
80335;BME280;69653;52.674;13.574;2023-08-08T03:10:28;100036.81;;;12.19;70.41
80335;BME280;69653;52.674;13.574;2023-08-08T03:12:53;100035.03;;;12.14;70.89
80335;BME280;69653;52.674;13.574;2023-08-08T03:15:19;100037.31;;;12.12;71.02
80335;BME280;69653;52.674;13.574;2023-08-08T03:17:44;100029.09;;;12.04;71.93
80335;BME280;69653;52.674;13.574;2023-08-08T03:20:10;100027.47;;;12.03;72.16
80335;BME280;69653;52.674;13.574;2023-08-08T03:22:36;100032.63;;;11.96;72.24
80335;BME280;69653;52.674;13.574;2023-08-08T03:25:01;100036.34;;;11.91;72.94
80335;BME280;69653;52.674;13.574;2023-08-08T03:27:29;100046.00;;;11.89;73.36
80335;BME280;69653;52.674;13.574;2023-08-08T03:29:54;100032.97;;;11.86;73.55
80335;BME280;69653;52.674;13.574;2023-08-08T03:32:19;100028.13;;;11.83;73.78
80335;BME280;69653;52.674;13.574;2023-08-08T03:34:45;100035.19;;;11.84;74.05
80335;BME280;69653;52.674;13.574;2023-08-08T03:37:10;100039.09;;;11.83;74.08
80335;BME280;69653;52.674;13.574;2023-08-08T03:39:35;100044.88;;;11.81;74.14
80335;BME280;69653;52.674;13.574;2023-08-08T03:42:00;100048.13;;;11.83;74.47
80335;BME280;69653;52.674;13.574;2023-08-08T03:44:26;100041.66;;;11.88;74.31
80335;BME280;69653;52.674;13.574;2023-08-08T03:46:51;100038.75;;;11.93;74.37
80335;BME280;69653;52.674;13.574;2023-08-08T03:49:16;100048.91;;;11.92;74.58
80335;BME280;69653;52.674;13.574;2023-08-08T03:51:42;100039.22;;;11.95;74.58
80335;BME280;69653;52.674;13.574;2023-08-08T03:54:07;100036.69;;;11.98;74.48
80335;BME280;69653;52.674;13.574;2023-08-08T03:56:33;100037.63;;;12.02;74.44
80335;BME280;69653;52.674;13.574;2023-08-08T03:58:58;100043.75;;;12.08;74.59
80335;BME280;69653;52.674;13.574;2023-08-08T04:01:24;100043.59;;;12.13;74.44
80335;BME280;69653;52.674;13.574;2023-08-08T04:03:49;100038.91;;;12.13;74.59
80335;BME280;69653;52.674;13.574;2023-08-08T04:06:14;100044.06;;;12.15;74.60
80335;BME280;69653;52.674;13.574;2023-08-08T04:08:39;100050.22;;;12.21;74.48
80335;BME280;69653;52.674;13.574;2023-08-08T04:11:05;100047.28;;;12.26;74.43
80335;BME280;69653;52.674;13.574;2023-08-08T04:13:30;100045.34;;;12.26;74.79
80335;BME280;69653;52.674;13.574;2023-08-08T04:15:55;100049.06;;;12.30;74.39
80335;BME280;69653;52.674;13.574;2023-08-08T04:18:21;100042.63;;;12.26;74.74
80335;BME280;69653;52.674;13.574;2023-08-08T04:20:46;100034.69;;;12.25;74.90
80335;BME280;69653;52.674;13.574;2023-08-08T04:23:14;100036.00;;;12.27;74.99
80335;BME280;69653;52.674;13.574;2023-08-08T04:25:39;100049.53;;;12.32;75.01
80335;BME280;69653;52.674;13.574;2023-08-08T04:28:05;100042.94;;;12.33;75.01
80335;BME280;69653;52.674;13.574;2023-08-08T04:30:30;100034.88;;;12.28;74.94
80335;BME280;69653;52.674;13.574;2023-08-08T04:32:55;100037.78;;;12.32;75.33
80335;BME280;69653;52.674;13.574;2023-08-08T04:35:21;100046.47;;;12.34;75.23
80335;BME280;69653;52.674;13.574;2023-08-08T04:37:46;100043.88;;;12.37;75.09
80335;BME280;69653;52.674;13.574;2023-08-08T04:40:11;100048.72;;;12.40;75.45
80335;BME280;69653;52.674;13.574;2023-08-08T04:42:37;100036.94;;;12.40;74.98
80335;BME280;69653;52.674;13.574;2023-08-08T04:45:02;100049.69;;;12.44;75.12
80335;BME280;69653;52.674;13.574;2023-08-08T04:47:28;100052.28;;;12.49;75.17
80335;BME280;69653;52.674;13.574;2023-08-08T04:49:53;100026.78;;;12.40;74.98
80335;BME280;69653;52.674;13.574;2023-08-08T04:52:18;100050.00;;;12.51;74.98
80335;BME280;69653;52.674;13.574;2023-08-08T04:54:44;100052.56;;;12.56;74.76
80335;BME280;69653;52.674;13.574;2023-08-08T04:57:09;100051.91;;;12.59;74.79
80335;BME280;69653;52.674;13.574;2023-08-08T04:59:35;100044.34;;;12.65;74.83
80335;BME280;69653;52.674;13.574;2023-08-08T05:02:00;100053.00;;;12.76;74.48
80335;BME280;69653;52.674;13.574;2023-08-08T05:04:25;100050.28;;;12.76;74.29
80335;BME280;69653;52.674;13.574;2023-08-08T05:06:51;100049.75;;;12.91;74.01
80335;BME280;69653;52.674;13.574;2023-08-08T05:09:16;100045.69;;;12.88;74.24
80335;BME280;69653;52.674;13.574;2023-08-08T05:11:41;100051.53;;;12.87;74.03
80335;BME280;69653;52.674;13.574;2023-08-08T05:14:06;100044.09;;;12.87;75.02
80335;BME280;69653;52.674;13.574;2023-08-08T05:16:32;100053.09;;;12.96;74.01
80335;BME280;69653;52.674;13.574;2023-08-08T05:18:57;100035.34;;;12.94;73.98
80335;BME280;69653;52.674;13.574;2023-08-08T05:21:23;100043.88;;;13.09;73.84
80335;BME280;69653;52.674;13.574;2023-08-08T05:23:48;100044.91;;;13.26;73.03
80335;BME280;69653;52.674;13.574;2023-08-08T05:26:15;100037.34;;;13.23;72.93
80335;BME280;69653;52.674;13.574;2023-08-08T05:28:40;100047.09;;;13.41;72.71
80335;BME280;69653;52.674;13.574;2023-08-08T05:31:06;100044.13;;;13.54;72.16
80335;BME280;69653;52.674;13.574;2023-08-08T05:33:31;100040.59;;;13.75;71.63
80335;BME280;69653;52.674;13.574;2023-08-08T05:35:56;100050.31;;;13.93;70.86
80335;BME280;69653;52.674;13.574;2023-08-08T05:38:22;100040.13;;;14.14;70.03
80335;BME280;69653;52.674;13.574;2023-08-08T05:40:47;100035.28;;;14.11;69.99
80335;BME280;69653;52.674;13.574;2023-08-08T05:43:12;100049.28;;;14.18;69.92
80335;BME280;69653;52.674;13.574;2023-08-08T05:45:42;100057.34;;;14.23;69.66
80335;BME280;69653;52.674;13.574;2023-08-08T05:48:07;100044.22;;;14.62;68.71
80335;BME280;69653;52.674;13.574;2023-08-08T05:50:34;100046.03;;;15.02;66.88
80335;BME280;69653;52.674;13.574;2023-08-08T05:53:02;100046.38;;;15.01;66.74
80335;BME280;69653;52.674;13.574;2023-08-08T05:55:27;100047.59;;;14.79;67.63
80335;BME280;69653;52.674;13.574;2023-08-08T05:57:53;100042.56;;;14.81;67.90
80335;BME280;69653;52.674;13.574;2023-08-08T06:00:19;100061.84;;;14.81;67.93
80335;BME280;69653;52.674;13.574;2023-08-08T06:02:45;100050.78;;;14.69;68.12
80335;BME280;69653;52.674;13.574;2023-08-08T06:05:10;100052.28;;;14.79;68.02
80335;BME280;69653;52.674;13.574;2023-08-08T06:07:36;100041.38;;;14.70;68.36
80335;BME280;69653;52.674;13.574;2023-08-08T06:10:01;100040.09;;;14.68;68.43
80335;BME280;69653;52.674;13.574;2023-08-08T06:12:26;100045.16;;;14.66;68.73
80335;BME280;69653;52.674;13.574;2023-08-08T06:14:52;100044.44;;;14.56;69.00
80335;BME280;69653;52.674;13.574;2023-08-08T06:17:17;100041.94;;;14.64;68.88
80335;BME280;69653;52.674;13.574;2023-08-08T06:19:42;100045.38;;;14.61;68.83
80335;BME280;69653;52.674;13.574;2023-08-08T06:22:08;100046.22;;;14.73;68.73
80335;BME280;69653;52.674;13.574;2023-08-08T06:24:33;100057.56;;;14.72;68.68
80335;BME280;69653;52.674;13.574;2023-08-08T06:26:59;100043.59;;;14.77;68.29
80335;BME280;69653;52.674;13.574;2023-08-08T06:29:24;100056.94;;;14.99;68.46
80335;BME280;69653;52.674;13.574;2023-08-08T06:31:49;100053.03;;;15.12;67.81
80335;BME280;69653;52.674;13.574;2023-08-08T06:34:15;100052.00;;;15.04;67.73
80335;BME280;69653;52.674;13.574;2023-08-08T06:36:40;100052.19;;;14.87;67.76
80335;BME280;69653;52.674;13.574;2023-08-08T06:39:05;100050.94;;;14.97;67.64
80335;BME280;69653;52.674;13.574;2023-08-08T06:41:31;100047.28;;;15.05;67.40
80335;BME280;69653;52.674;13.574;2023-08-08T06:43:56;100051.44;;;15.47;66.04
80335;BME280;69653;52.674;13.574;2023-08-08T06:46:21;100045.19;;;15.87;64.31
80335;BME280;69653;52.674;13.574;2023-08-08T06:48:47;100053.69;;;15.94;64.41
80335;BME280;69653;52.674;13.574;2023-08-08T06:51:13;100050.22;;;15.97;64.62
80335;BME280;69653;52.674;13.574;2023-08-08T06:53:38;100055.09;;;15.76;65.26
80335;BME280;69653;52.674;13.574;2023-08-08T06:56:04;100049.47;;;15.72;65.75
80335;BME280;69653;52.674;13.574;2023-08-08T06:58:29;100046.72;;;15.72;65.80
80335;BME280;69653;52.674;13.574;2023-08-08T07:00:54;100060.66;;;15.51;66.05
80335;BME280;69653;52.674;13.574;2023-08-08T07:03:19;100041.44;;;15.43;66.58
80335;BME280;69653;52.674;13.574;2023-08-08T07:05:45;100047.66;;;15.28;66.96
80335;BME280;69653;52.674;13.574;2023-08-08T07:08:12;100056.50;;;15.21;66.78
80335;BME280;69653;52.674;13.574;2023-08-08T07:10:38;100051.53;;;15.27;66.75
80335;BME280;69653;52.674;13.574;2023-08-08T07:13:03;100061.19;;;15.21;66.88
80335;BME280;69653;52.674;13.574;2023-08-08T07:15:28;100065.66;;;15.37;66.37
80335;BME280;69653;52.674;13.574;2023-08-08T07:17:54;100072.94;;;15.54;65.55
80335;BME280;69653;52.674;13.574;2023-08-08T07:20:19;100061.09;;;15.78;65.03
80335;BME280;69653;52.674;13.574;2023-08-08T07:22:44;100054.84;;;15.93;64.31
80335;BME280;69653;52.674;13.574;2023-08-08T07:25:10;100061.31;;;15.85;64.98
80335;BME280;69653;52.674;13.574;2023-08-08T07:27:36;100042.00;;;15.85;65.01
80335;BME280;69653;52.674;13.574;2023-08-08T07:30:02;100052.56;;;16.50;63.23
80335;BME280;69653;52.674;13.574;2023-08-08T07:32:28;100057.03;;;16.98;61.51
80335;BME280;69653;52.674;13.574;2023-08-08T07:34:53;100060.25;;;16.85;62.18
80335;BME280;69653;52.674;13.574;2023-08-08T07:37:18;100059.78;;;16.83;62.03
80335;BME280;69653;52.674;13.574;2023-08-08T07:39:43;100060.16;;;16.81;61.41
80335;BME280;69653;52.674;13.574;2023-08-08T07:42:09;100062.75;;;17.06;61.56
80335;BME280;69653;52.674;13.574;2023-08-08T07:44:34;100057.56;;;17.20;61.23
80335;BME280;69653;52.674;13.574;2023-08-08T07:47:03;100060.59;;;16.99;61.12
80335;BME280;69653;52.674;13.574;2023-08-08T07:49:28;100058.63;;;16.84;61.04
80335;BME280;69653;52.674;13.574;2023-08-08T07:51:54;100063.41;;;16.71;61.64
80335;BME280;69653;52.674;13.574;2023-08-08T07:54:19;100050.94;;;16.62;61.61
80335;BME280;69653;52.674;13.574;2023-08-08T07:56:44;100056.56;;;16.81;61.40
80335;BME280;69653;52.674;13.574;2023-08-08T07:59:09;100059.19;;;16.89;61.27
80335;BME280;69653;52.674;13.574;2023-08-08T08:01:35;100047.16;;;17.29;59.98
80335;BME280;69653;52.674;13.574;2023-08-08T08:04:00;100051.47;;;17.77;58.41
80335;BME280;69653;52.674;13.574;2023-08-08T08:06:25;100058.00;;;17.69;59.05
80335;BME280;69653;52.674;13.574;2023-08-08T08:08:51;100060.59;;;17.62;58.95
80335;BME280;69653;52.674;13.574;2023-08-08T08:11:16;100052.19;;;17.42;59.09
80335;BME280;69653;52.674;13.574;2023-08-08T08:13:42;100050.53;;;17.22;59.69
80335;BME280;69653;52.674;13.574;2023-08-08T08:16:08;100056.69;;;17.16;59.58
80335;BME280;69653;52.674;13.574;2023-08-08T08:18:33;100058.47;;;17.08;60.44
80335;BME280;69653;52.674;13.574;2023-08-08T08:20:59;100051.25;;;17.04;60.80
80335;BME280;69653;52.674;13.574;2023-08-08T08:23:24;100059.78;;;16.98;60.39
80335;BME280;69653;52.674;13.574;2023-08-08T08:25:49;100055.25;;;16.90;60.41
80335;BME280;69653;52.674;13.574;2023-08-08T08:28:16;100059.72;;;16.95;60.21
80335;BME280;69653;52.674;13.574;2023-08-08T08:30:41;100045.38;;;16.89;60.77
80335;BME280;69653;52.674;13.574;2023-08-08T08:33:07;100049.00;;;16.93;60.81
80335;BME280;69653;52.674;13.574;2023-08-08T08:35:33;100027.91;;;16.85;60.53
80335;BME280;69653;52.674;13.574;2023-08-08T08:37:58;100052.03;;;16.73;61.38
80335;BME280;69653;52.674;13.574;2023-08-08T08:40:24;100049.91;;;16.82;61.03
80335;BME280;69653;52.674;13.574;2023-08-08T08:42:49;100045.06;;;16.79;61.60
80335;BME280;69653;52.674;13.574;2023-08-08T08:45:18;100037.16;;;16.77;61.66
80335;BME280;69653;52.674;13.574;2023-08-08T08:47:46;100041.22;;;16.68;62.19
80335;BME280;69653;52.674;13.574;2023-08-08T08:50:13;100043.56;;;16.81;62.20
80335;BME280;69653;52.674;13.574;2023-08-08T08:52:40;100044.47;;;16.85;61.35
80335;BME280;69653;52.674;13.574;2023-08-08T08:55:06;100040.84;;;16.97;61.77
80335;BME280;69653;52.674;13.574;2023-08-08T08:57:32;100040.84;;;16.97;60.64
80335;BME280;69653;52.674;13.574;2023-08-08T08:59:58;100053.47;;;16.98;60.84
80335;BME280;69653;52.674;13.574;2023-08-08T09:02:23;100036.38;;;17.08;59.81
80335;BME280;69653;52.674;13.574;2023-08-08T09:04:49;100047.69;;;17.19;59.65
80335;BME280;69653;52.674;13.574;2023-08-08T09:07:17;100042.34;;;17.26;59.72
80335;BME280;69653;52.674;13.574;2023-08-08T09:09:43;100027.91;;;17.17;59.81
80335;BME280;69653;52.674;13.574;2023-08-08T09:12:10;100035.75;;;17.30;59.75
80335;BME280;69653;52.674;13.574;2023-08-08T09:14:40;100033.72;;;17.78;57.82
80335;BME280;69653;52.674;13.574;2023-08-08T09:17:10;100035.94;;;18.46;56.59
80335;BME280;69653;52.674;13.574;2023-08-08T09:19:36;100043.22;;;18.96;55.33
80335;BME280;69653;52.674;13.574;2023-08-08T09:22:01;100028.72;;;19.06;54.18
80335;BME280;69653;52.674;13.574;2023-08-08T09:24:27;100031.69;;;18.71;54.85
80335;BME280;69653;52.674;13.574;2023-08-08T09:26:52;100031.91;;;18.24;56.01
80335;BME280;69653;52.674;13.574;2023-08-08T09:29:17;100032.06;;;17.92;56.87
80335;BME280;69653;52.674;13.574;2023-08-08T09:31:43;100027.47;;;17.81;57.04
80335;BME280;69653;52.674;13.574;2023-08-08T09:34:11;100034.66;;;17.35;58.37
80335;BME280;69653;52.674;13.574;2023-08-08T09:36:36;100024.59;;;17.27;58.64
80335;BME280;69653;52.674;13.574;2023-08-08T09:39:02;100037.53;;;17.23;59.04
80335;BME280;69653;52.674;13.574;2023-08-08T09:41:27;100026.09;;;17.24;58.92
80335;BME280;69653;52.674;13.574;2023-08-08T09:43:53;100020.38;;;17.49;57.94
80335;BME280;69653;52.674;13.574;2023-08-08T09:46:19;100026.16;;;17.75;56.88
80335;BME280;69653;52.674;13.574;2023-08-08T09:48:45;100023.69;;;18.08;55.58
80335;BME280;69653;52.674;13.574;2023-08-08T09:51:11;100026.19;;;18.52;55.25
80335;BME280;69653;52.674;13.574;2023-08-08T09:53:38;100026.81;;;18.45;55.00
80335;BME280;69653;52.674;13.574;2023-08-08T09:56:04;100015.34;;;18.47;55.10
80335;BME280;69653;52.674;13.574;2023-08-08T09:58:30;100028.59;;;18.76;54.58
80335;BME280;69653;52.674;13.574;2023-08-08T10:00:56;100017.34;;;18.88;52.97
80335;BME280;69653;52.674;13.574;2023-08-08T10:03:22;100020.22;;;18.95;52.70
80335;BME280;69653;52.674;13.574;2023-08-08T10:05:47;100016.47;;;19.82;51.30
80335;BME280;69653;52.674;13.574;2023-08-08T10:08:16;100020.66;;;20.62;48.22
80335;BME280;69653;52.674;13.574;2023-08-08T10:10:46;100014.63;;;21.41;45.81
80335;BME280;69653;52.674;13.574;2023-08-08T10:13:19;100003.22;;;21.60;44.85
80335;BME280;69653;52.674;13.574;2023-08-08T10:15:44;100011.22;;;21.65;43.99
80335;BME280;69653;52.674;13.574;2023-08-08T10:18:12;100005.06;;;21.35;44.60
80335;BME280;69653;52.674;13.574;2023-08-08T10:20:38;100003.91;;;21.43;44.63
80335;BME280;69653;52.674;13.574;2023-08-08T10:23:05;100011.47;;;21.42;45.86
80335;BME280;69653;52.674;13.574;2023-08-08T10:25:32;99995.72;;;21.67;46.35
80335;BME280;69653;52.674;13.574;2023-08-08T10:28:11;100002.66;;;21.91;45.46
80335;BME280;69653;52.674;13.574;2023-08-08T10:30:46;99993.41;;;21.80;46.38
80335;BME280;69653;52.674;13.574;2023-08-08T10:33:24;100002.09;;;22.65;46.45
80335;BME280;69653;52.674;13.574;2023-08-08T10:36:01;100010.16;;;23.09;45.24
80335;BME280;69653;52.674;13.574;2023-08-08T10:38:44;100012.91;;;22.77;45.50
80335;BME280;69653;52.674;13.574;2023-08-08T10:41:14;99985.34;;;22.40;46.57
80335;BME280;69653;52.674;13.574;2023-08-08T10:43:51;100015.22;;;21.71;47.71
80335;BME280;69653;52.674;13.574;2023-08-08T10:46:28;99996.69;;;20.87;49.31
80335;BME280;69653;52.674;13.574;2023-08-08T10:48:56;99980.22;;;20.68;50.32
80335;BME280;69653;52.674;13.574;2023-08-08T10:51:41;99973.28;;;20.14;49.89
80335;BME280;69653;52.674;13.574;2023-08-08T10:54:14;99981.56;;;20.44;49.27
80335;BME280;69653;52.674;13.574;2023-08-08T10:56:41;99968.47;;;20.11;49.37
80335;BME280;69653;52.674;13.574;2023-08-08T10:59:17;99999.47;;;19.83;51.96
80335;BME280;69653;52.674;13.574;2023-08-08T11:01:45;100042.41;;;18.34;65.91
80335;BME280;69653;52.674;13.574;2023-08-08T11:04:11;100033.94;;;16.91;69.88
80335;BME280;69653;52.674;13.574;2023-08-08T11:06:37;100031.88;;;15.89;75.22
80335;BME280;69653;52.674;13.574;2023-08-08T11:09:06;100021.84;;;15.32;78.10
80335;BME280;69653;52.674;13.574;2023-08-08T11:11:42;100031.81;;;15.13;79.43
80335;BME280;69653;52.674;13.574;2023-08-08T11:14:09;100021.47;;;15.10;80.71
80335;BME280;69653;52.674;13.574;2023-08-08T11:16:35;100013.91;;;15.19;80.80
80335;BME280;69653;52.674;13.574;2023-08-08T11:19:00;100018.16;;;15.52;82.57
80335;BME280;69653;52.674;13.574;2023-08-08T11:21:25;100008.72;;;16.06;84.16
80335;BME280;69653;52.674;13.574;2023-08-08T11:23:51;100009.53;;;16.77;79.87
80335;BME280;69653;52.674;13.574;2023-08-08T11:26:19;100003.91;;;17.36;76.07
80335;BME280;69653;52.674;13.574;2023-08-08T11:28:51;100009.72;;;18.01;75.56
80335;BME280;69653;52.674;13.574;2023-08-08T11:31:19;100004.84;;;18.52;71.30
80335;BME280;69653;52.674;13.574;2023-08-08T11:33:47;99994.09;;;18.93;72.02
80335;BME280;69653;52.674;13.574;2023-08-08T11:36:14;99990.09;;;19.39;64.58
80335;BME280;69653;52.674;13.574;2023-08-08T11:38:40;99982.47;;;19.59;60.05
80335;BME280;69653;52.674;13.574;2023-08-08T11:41:06;99979.97;;;19.01;62.06
80335;BME280;69653;52.674;13.574;2023-08-08T11:43:32;99989.97;;;18.83;60.98
80335;BME280;69653;52.674;13.574;2023-08-08T11:46:00;99990.75;;;18.83;61.32
80335;BME280;69653;52.674;13.574;2023-08-08T11:48:26;99991.72;;;18.95;61.11
80335;BME280;69653;52.674;13.574;2023-08-08T11:50:52;99986.56;;;18.93;61.88
80335;BME280;69653;52.674;13.574;2023-08-08T11:53:19;99983.63;;;18.82;63.60
80335;BME280;69653;52.674;13.574;2023-08-08T11:55:45;99995.63;;;18.90;63.35
80335;BME280;69653;52.674;13.574;2023-08-08T11:58:14;99992.25;;;19.49;60.29
80335;BME280;69653;52.674;13.574;2023-08-08T12:00:42;99973.03;;;19.93;54.03
80335;BME280;69653;52.674;13.574;2023-08-08T12:03:10;99972.34;;;20.37;51.34
80335;BME280;69653;52.674;13.574;2023-08-08T12:05:39;99980.59;;;20.66;50.28
80335;BME280;69653;52.674;13.574;2023-08-08T12:08:07;99980.41;;;20.89;51.26
80335;BME280;69653;52.674;13.574;2023-08-08T12:10:33;99981.00;;;21.09;48.09
80335;BME280;69653;52.674;13.574;2023-08-08T12:12:59;99983.88;;;21.19;48.77
80335;BME280;69653;52.674;13.574;2023-08-08T12:15:29;99992.09;;;21.05;47.56
80335;BME280;69653;52.674;13.574;2023-08-08T12:17:58;99986.06;;;21.47;47.63
80335;BME280;69653;52.674;13.574;2023-08-08T12:20:27;99989.03;;;21.79;47.14
80335;BME280;69653;52.674;13.574;2023-08-08T12:22:52;99983.56;;;21.93;46.54
80335;BME280;69653;52.674;13.574;2023-08-08T12:25:17;99984.00;;;21.37;46.53
80335;BME280;69653;52.674;13.574;2023-08-08T12:27:43;99986.53;;;21.05;47.94
80335;BME280;69653;52.674;13.574;2023-08-08T12:30:08;99983.72;;;20.58;48.97
80335;BME280;69653;52.674;13.574;2023-08-08T12:32:34;99985.91;;;20.08;49.92
80335;BME280;69653;52.674;13.574;2023-08-08T12:34:59;99988.38;;;19.83;53.71